Time;durP1;ratioP1;P1;durP2;ratioP2;P2;SDS_P1;SDS_P2;PMS_P1;PMS_P2;Temp;Humidity;BMP_temperature;BMP_pressure;BME280_temperature;BME280_humidity;BME280_pressure;Samples;Min_cycle;Max_cycle;Signal;HPM_P1;HPM_P2
2023/02/01 00:04:55;;;;;;;2.80;2.60;;;;;;;6.15;91.34;100616.19;10334420;28;21101;-46
2023/02/01 00:09:56;;;;;;;3.55;2.97;;;;;;;6.15;91.26;100621.47;10329662;28;20050;-47
2023/02/01 00:14:58;;;;;;;4.72;2.55;;;;;;;6.16;90.71;100605.53;10337044;28;20545;-46
2023/02/01 00:19:59;;;;;;;3.85;3.00;;;;;;;6.13;90.30;100623.38;10342265;28;20067;-50
2023/02/01 00:25:01;;;;;;;4.47;2.72;;;;;;;6.15;90.61;100616.19;10339849;28;20137;-45
2023/02/01 00:30:03;;;;;;;3.97;2.78;;;;;;;6.24;90.41;100609.53;10341541;28;20054;-46
2023/02/01 00:35:04;;;;;;;3.65;2.95;;;;;;;6.17;89.64;100606.38;10335869;28;20100;-46
2023/02/01 00:40:07;;;;;;;2.65;2.45;;;;;;;6.15;90.02;100605.63;10340124;28;20145;-47
2023/02/01 00:45:09;;;;;;;5.03;3.53;;;;;;;6.17;89.39;100609.00;10340755;28;20140;-47
2023/02/01 00:50:10;;;;;;;3.78;2.70;;;;;;;6.08;89.88;100609.53;10336013;28;20135;-47
2023/02/01 00:55:12;;;;;;;4.45;2.75;;;;;;;6.10;89.82;100595.31;10343427;28;20061;-47
2023/02/01 01:00:14;;;;;;;2.78;2.50;;;;;;;6.11;90.20;100593.50;10342633;28;20127;-47
2023/02/01 01:05:15;;;;;;;3.22;2.80;;;;;;;6.17;89.80;100607.25;10350283;28;20053;-47
2023/02/01 01:10:17;;;;;;;3.97;2.75;;;;;;;6.12;89.80;100608.44;10347632;28;20054;-47
2023/02/01 01:15:18;;;;;;;3.78;3.45;;;;;;;6.08;90.00;100601.59;10344910;28;20471;-46
2023/02/01 01:20:21;;;;;;;3.88;3.33;;;;;;;6.11;90.01;100585.56;10342664;28;20551;-47
2023/02/01 01:25:23;;;;;;;5.53;3.65;;;;;;;6.15;89.35;100587.13;10338679;28;20080;-46
2023/02/01 01:30:24;;;;;;;3.70;3.30;;;;;;;6.16;88.82;100589.66;10344937;28;20253;-46
2023/02/01 01:35:26;;;;;;;5.18;4.00;;;;;;;6.17;88.79;100580.81;10345951;28;20053;-46
2023/02/01 01:40:28;;;;;;;5.25;4.75;;;;;;;6.18;88.95;100586.94;10336856;28;20059;-48
2023/02/01 01:45:33;;;;;;;6.05;4.43;;;;;;;6.12;89.64;100585.50;10341144;28;20538;-46
2023/02/01 01:50:48;;;;;;;7.87;4.37;;;;;;;6.05;90.07;100573.59;10342302;28;20046;-46
2023/02/01 01:55:52;;;;;;;5.32;4.50;;;;;;;6.08;90.54;100575.19;10343819;28;20749;-47
2023/02/01 02:00:54;;;;;;;4.80;4.32;;;;;;;6.07;90.71;100587.56;10341761;28;20056;-47
2023/02/01 02:05:58;;;;;;;4.75;3.47;;;;;;;6.04;91.13;100571.03;10339736;28;20045;-46
2023/02/01 02:11:00;;;;;;;4.38;3.88;;;;;;;6.11;91.14;100559.16;10337986;28;20803;-47
2023/02/01 02:16:34;;;;;;;5.90;4.07;;;;;;;6.00;92.21;100538.63;10339292;28;20049;-46
2023/02/01 02:21:54;;;;;;;4.63;3.92;;;;;;;6.03;92.60;100537.59;10337873;28;20040;-47
2023/02/01 02:27:33;;;;;;;4.65;4.25;;;;;;;6.09;92.38;100543.38;10340073;28;20089;-47
2023/02/01 02:33:06;;;;;;;4.95;4.45;;;;;;;6.07;93.09;100565.56;10340483;28;20742;-46
2023/02/01 02:38:37;;;;;;;4.72;4.22;;;;;;;6.13;93.09;100570.50;10338120;28;20049;-47
2023/02/01 02:49:28;;;;;;;7.70;5.55;;;;;;;6.14;94.10;100577.47;10334747;28;20050;-47
2023/02/01 02:54:47;;;;;;;6.32;4.95;;;;;;;6.08;94.54;100567.25;10344270;28;20076;-46
2023/02/01 03:05:09;;;;;;;6.57;5.30;;;;;;;6.03;94.79;100558.75;10344489;28;20708;-47
2023/02/01 03:10:19;;;;;;;5.97;5.28;;;;;;;6.09;94.75;100553.94;10342655;28;20515;-47
2023/02/01 03:15:29;;;;;;;6.32;5.82;;;;;;;6.10;95.13;100544.25;10343718;28;20573;-46
2023/02/01 03:20:32;;;;;;;5.35;4.85;;;;;;;6.08;95.17;100540.81;10341868;28;20049;-46
2023/02/01 03:25:34;;;;;;;5.30;4.57;;;;;;;6.08;95.43;100544.34;10343670;28;20050;-48
2023/02/01 03:30:38;;;;;;;9.05;4.78;;;;;;;6.07;95.10;100536.50;10338892;28;20904;-47
2023/02/01 03:35:49;;;;;;;4.88;4.47;;;;;;;6.08;95.08;100535.53;10340349;28;20593;-46
2023/02/01 03:40:57;;;;;;;5.75;3.78;;;;;;;6.12;94.25;100527.34;10344813;28;20068;-47
2023/02/01 03:46:05;;;;;;;5.20;4.00;;;;;;;6.10;94.06;100523.94;10341308;28;20084;-47
2023/02/01 03:51:09;;;;;;;5.35;4.22;;;;;;;6.09;94.29;100529.31;10338899;28;20052;-47
2023/02/01 03:56:11;;;;;;;4.33;3.80;;;;;;;6.09;94.07;100527.53;10342457;28;20073;-46
2023/02/01 04:01:12;;;;;;;4.78;3.00;;;;;;;6.08;94.15;100517.03;10344626;28;20059;-46
2023/02/01 04:06:14;;;;;;;3.67;3.03;;;;;;;6.02;93.83;100510.34;10344275;28;20053;-46
2023/02/01 04:11:15;;;;;;;3.80;3.40;;;;;;;6.01;93.99;100504.19;10343413;28;20041;-47
2023/02/01 04:16:17;;;;;;;4.22;3.67;;;;;;;6.04;94.35;100519.00;10336130;28;20687;-47
2023/02/01 04:21:18;;;;;;;6.35;2.92;;;;;;;6.10;94.43;100523.09;10336422;28;20197;-48
2023/02/01 04:26:21;;;;;;;4.13;3.50;;;;;;;6.05;94.37;100515.44;10346196;28;20674;-48
2023/02/01 04:31:25;;;;;;;6.05;3.83;;;;;;;6.06;94.89;100511.00;10348943;28;20526;-48
2023/02/01 04:36:27;;;;;;;5.17;3.87;;;;;;;6.14;94.38;100521.97;10348453;28;20061;-45
2023/02/01 04:41:28;;;;;;;5.22;4.03;;;;;;;6.17;94.12;100535.00;10348798;28;20276;-46
2023/02/01 04:46:30;;;;;;;4.95;4.22;;;;;;;6.14;93.06;100524.59;10352984;28;20128;-46
2023/02/01 04:51:32;;;;;;;5.55;4.60;;;;;;;6.24;92.95;100525.78;10352108;28;20053;-46
2023/02/01 04:56:37;;;;;;;4.30;3.80;;;;;;;5.96;93.27;100479.78;10359870;28;20200;-46
2023/02/01 05:01:38;;;;;;;;;;;;;;;6.19;93.09;100501.41;10345616;28;20050;-46
2023/02/01 05:06:40;;;;;;;3.92;3.53;;;;;;;6.17;93.59;100517.38;10344751;28;19936;-46
2023/02/01 05:17:01;;;;;;;4.35;3.90;;;;;;;6.24;93.29;100512.56;10353639;28;20037;-46
2023/02/01 05:22:02;;;;;;;8.75;3.75;;;;;;;6.22;93.03;100506.53;10340694;28;20080;-46
2023/02/01 05:27:04;;;;;;;6.88;4.10;;;;;;;6.16;93.55;100502.44;10339146;28;20057;-45
2023/02/01 05:32:05;;;;;;;4.30;3.88;;;;;;;6.17;93.50;100514.72;10345560;28;20076;-45
2023/02/01 05:37:22;;;;;;;5.95;3.75;;;;;;;6.21;92.68;100520.69;10346338;28;20045;-46
2023/02/01 05:42:23;;;;;;;5.05;3.53;;;;;;;6.23;92.18;100518.81;10344953;28;20061;-46
2023/02/01 05:47:25;;;;;;;6.50;4.10;;;;;;;6.28;91.49;100508.81;10339141;28;21020;-46
2023/02/01 05:52:26;;;;;;;6.65;3.50;;;;;;;6.31;90.92;100505.16;10341437;28;20045;-45
2023/02/01 05:57:28;;;;;;;5.50;3.35;;;;;;;6.27;90.84;100499.16;10344509;28;20053;-46
2023/02/01 06:02:30;;;;;;;5.68;3.83;;;;;;;6.23;90.17;100481.81;10346184;28;20058;-46
2023/02/01 06:07:32;;;;;;;6.05;3.58;;;;;;;6.05;90.26;100477.56;10331725;28;20042;-47
2023/02/01 06:12:33;;;;;;;8.65;3.53;;;;;;;5.98;90.02;100485.84;10346765;28;20097;-47
2023/02/01 06:17:35;;;;;;;6.65;3.50;;;;;;;6.00;89.38;100491.94;10341021;28;21931;-45
2023/02/01 06:22:37;;;;;;;5.53;2.97;;;;;;;6.00;88.01;100469.91;10350323;28;20057;-47
2023/02/01 06:27:38;;;;;;;5.75;3.22;;;;;;;6.08;86.71;100483.56;10347459;28;20088;-48
2023/02/01 06:32:40;;;;;;;6.25;2.88;;;;;;;6.10;86.61;100488.75;10346322;28;20567;-45
2023/02/01 06:37:41;;;;;;;9.27;3.53;;;;;;;6.17;86.58;100482.13;10345174;28;20059;-45
2023/02/01 06:42:43;;;;;;;10.38;3.92;;;;;;;6.07;87.06;100481.00;10347506;28;20147;-45
2023/02/01 06:47:44;;;;;;;4.65;2.85;;;;;;;5.91;87.86;100489.75;10345792;28;20110;-47
2023/02/01 06:52:46;;;;;;;9.00;3.83;;;;;;;5.90;87.31;100484.56;10340100;28;20115;-46
2023/02/01 06:57:47;;;;;;;9.73;3.50;;;;;;;5.82;87.74;100492.94;10342653;28;20062;-46
2023/02/01 07:02:50;;;;;;;8.55;3.58;;;;;;;5.81;86.35;100505.28;10341801;28;20060;-45
2023/02/01 07:07:52;;;;;;;10.50;3.58;;;;;;;5.81;85.73;100496.50;10337649;28;20060;-45
2023/02/01 07:12:57;;;;;;;10.57;3.33;;;;;;;5.83;85.12;100489.34;10344183;28;20136;-46
2023/02/01 07:17:58;;;;;;;10.30;3.58;;;;;;;5.83;84.51;100481.44;10341811;28;20049;-46
2023/02/01 07:23:00;;;;;;;6.97;3.15;;;;;;;5.89;82.55;100475.78;10342392;28;20131;-47
2023/02/01 07:28:01;;;;;;;13.05;5.93;;;;;;;5.94;81.81;100489.56;10332659;28;20057;-46
2023/02/01 07:33:02;;;;;;;8.50;4.18;;;;;;;6.46;84.90;100482.25;10337096;28;20045;-49
2023/02/01 07:38:04;;;;;;;10.57;3.75;;;;;;;6.34;78.92;100504.97;10337748;28;20056;-46
2023/02/01 07:43:07;;;;;;;11.80;4.55;;;;;;;6.28;78.21;100516.75;10344880;28;20487;-49
2023/02/01 07:48:09;;;;;;;9.18;3.50;;;;;;;6.37;77.88;100534.72;10344526;28;20076;-46
2023/02/01 07:53:10;;;;;;;8.45;3.45;;;;;;;6.42;75.99;100536.25;10344457;28;20860;-47
2023/02/01 07:58:11;;;;;;;7.75;2.92;;;;;;;6.40;75.55;100548.72;10338297;28;20494;-47
2023/02/01 08:03:13;;;;;;;11.40;3.72;;;;;;;6.40;74.67;100520.47;10339499;28;20044;-47
2023/02/01 08:08:17;;;;;;;10.55;3.58;;;;;;;6.46;74.51;100530.69;10342899;28;20041;-46
2023/02/01 08:13:18;;;;;;;7.20;3.15;;;;;;;6.49;73.90;100541.06;10343041;28;20065;-47
2023/02/01 08:18:20;;;;;;;8.82;2.92;;;;;;;6.55;73.19;100550.44;10340795;28;20057;-47
2023/02/01 08:23:23;;;;;;;10.10;2.92;;;;;;;6.57;73.40;100551.19;10340326;28;20639;-48
2023/02/01 08:28:24;;;;;;;6.93;3.00;;;;;;;6.51;73.19;100554.22;10341418;28;20049;-47
2023/02/01 08:33:25;;;;;;;7.03;2.80;;;;;;;6.61;73.77;100555.38;10342512;28;20776;-49
2023/02/01 08:38:27;;;;;;;7.43;2.83;;;;;;;6.67;73.18;100565.59;10341036;28;20057;-47
2023/02/01 08:43:28;;;;;;;10.00;3.08;;;;;;;6.54;72.96;100572.53;10343830;28;20545;-47
2023/02/01 08:48:30;;;;;;;7.90;3.25;;;;;;;6.49;72.95;100564.88;10342616;28;20050;-46
2023/02/01 08:53:32;;;;;;;11.93;3.75;;;;;;;6.52;72.84;100566.50;10342566;28;20155;-46
2023/02/01 08:58:34;;;;;;;9.07;2.97;;;;;;;6.52;72.64;100571.78;10344632;28;20053;-46
2023/02/01 09:03:35;;;;;;;8.60;2.90;;;;;;;6.56;71.96;100562.75;10339626;28;20122;-46
2023/02/01 09:08:38;;;;;;;7.95;2.85;;;;;;;6.63;71.41;100557.94;10342481;28;20053;-47
2023/02/01 09:13:42;;;;;;;8.57;3.10;;;;;;;6.60;71.38;100572.19;10351466;28;20512;-46
2023/02/01 09:18:44;;;;;;;8.68;3.63;;;;;;;6.67;71.05;100570.88;10344019;28;20696;-45
2023/02/01 09:24:06;;;;;;;7.88;2.78;;;;;;;6.63;70.46;100574.63;10346541;28;20491;-46
2023/02/01 09:29:10;;;;;;;9.65;2.95;;;;;;;6.66;70.01;100595.63;10346731;28;20064;-47
2023/02/01 09:34:12;;;;;;;10.25;3.53;;;;;;;6.66;69.83;100600.91;10354030;28;20172;-47
2023/02/01 09:39:13;;;;;;;7.00;3.28;;;;;;;6.75;69.58;100617.19;10351863;28;20049;-47
2023/02/01 09:44:28;;;;;;;8.73;3.55;;;;;;;6.77;68.21;100625.88;10353378;28;20045;-48
2023/02/01 09:49:50;;;;;;;7.50;2.50;;;;;;;6.77;68.37;100631.19;10350522;28;20049;-46
2023/02/01 09:55:00;;;;;;;10.27;2.85;;;;;;;6.87;68.09;100635.00;10345154;28;20065;-47
2023/02/01 10:00:15;;;;;;;10.20;2.53;;;;;;;6.80;67.67;100617.78;10361272;28;20212;-48
2023/02/01 10:05:28;;;;;;;7.28;2.53;;;;;;;6.83;67.35;100625.53;10348769;28;20206;-46
2023/02/01 10:10:39;;;;;;;11.23;3.38;;;;;;;6.82;66.88;100610.63;10348001;28;20282;-46
2023/02/01 10:16:16;;;;;;;8.02;2.78;;;;;;;6.89;67.31;100623.38;10350832;28;20738;-46
2023/02/01 10:21:43;;;;;;;8.13;2.75;;;;;;;6.90;65.85;100622.44;10340769;28;20504;-46
2023/02/01 10:26:54;;;;;;;9.73;2.50;;;;;;;6.98;65.58;100619.34;10344180;28;20159;-46
2023/02/01 10:31:57;;;;;;;11.05;3.05;;;;;;;7.01;65.47;100597.97;10345910;28;20198;-46
2023/02/01 10:37:18;;;;;;;7.07;2.80;;;;;;;7.04;64.81;100579.28;10349376;28;20490;-46
2023/02/01 10:42:24;;;;;;;8.65;2.92;;;;;;;7.09;64.67;100592.22;10343503;28;20080;-46
2023/02/01 10:47:25;;;;;;;11.02;2.83;;;;;;;6.89;65.42;100549.28;10346127;28;20049;-46
2023/02/01 10:52:34;;;;;;;7.40;3.15;;;;;;;7.06;64.70;100576.53;10347842;28;20057;-47
2023/02/01 10:57:36;;;;;;;9.18;3.13;;;;;;;7.07;64.86;100573.78;10349290;28;20056;-46
2023/02/01 11:02:37;;;;;;;11.63;3.70;;;;;;;6.99;65.15;100573.38;10348176;28;20056;-46
2023/02/01 11:07:45;;;;;;;10.63;2.88;;;;;;;6.96;65.26;100568.28;10343035;28;20068;-48
2023/02/01 11:12:53;;;;;;;11.73;3.63;;;;;;;7.02;65.67;100570.56;10345024;28;20679;-47
2023/02/01 11:17:56;;;;;;;10.25;3.50;;;;;;;7.12;65.35;100573.50;10347292;28;20187;-46
2023/02/01 11:22:58;;;;;;;9.02;3.08;;;;;;;6.97;65.41;100535.59;10343681;28;20903;-47
2023/02/01 11:27:59;;;;;;;9.63;3.38;;;;;;;6.99;65.24;100554.84;10344105;28;20035;-46
2023/02/01 11:33:03;;;;;;;9.02;2.85;;;;;;;7.00;65.48;100555.72;10343623;28;20057;-47
2023/02/01 11:38:22;;;;;;;9.85;2.38;;;;;;;7.08;65.76;100556.09;10340354;28;20137;-49
2023/02/01 11:43:27;;;;;;;11.80;3.00;;;;;;;7.01;66.03;100552.13;10343825;28;20101;-46
2023/02/01 11:48:32;;;;;;;9.30;3.40;;;;;;;7.05;66.25;100543.06;10350460;28;20073;-46
2023/02/01 11:53:46;;;;;;;9.88;3.05;;;;;;;7.08;65.99;100549.00;10347216;28;20049;-46
2023/02/01 11:59:25;;;;;;;12.02;3.55;;;;;;;7.12;66.36;100544.38;10346920;28;20232;-46
2023/02/01 12:04:57;;;;;;;9.60;2.88;;;;;;;7.01;65.59;100530.94;10345940;28;20244;-47
2023/02/01 12:10:18;;;;;;;8.20;2.90;;;;;;;7.08;66.08;100522.53;10345077;28;20379;-46
2023/02/01 12:15:47;;;;;;;7.25;3.00;;;;;;;7.16;66.08;100523.84;10340582;28;20049;-47
2023/02/01 12:21:10;;;;;;;10.77;4.38;;;;;;;7.18;65.85;100524.63;10342067;28;20041;-47
2023/02/01 12:26:11;;;;;;;10.18;3.72;;;;;;;7.29;65.25;100526.59;10335452;28;20534;-47
2023/02/01 12:31:40;;;;;;;11.13;3.22;;;;;;;7.23;65.21;100525.19;10346760;28;20059;-47
2023/02/01 12:36:45;;;;;;;7.95;2.53;;;;;;;7.25;65.60;100520.63;10346519;28;20488;-45
2023/02/01 12:42:13;;;;;;;8.07;2.70;;;;;;;7.24;66.07;100521.59;10348580;28;20433;-46
2023/02/01 12:47:29;;;;;;;11.90;3.45;;;;;;;7.23;66.32;100502.19;10345967;28;20049;-46
2023/02/01 12:52:35;;;;;;;14.00;6.25;;;;;;;7.15;66.85;100501.00;10352013;28;20402;-47
2023/02/01 12:57:45;;;;;;;10.40;2.95;;;;;;;7.18;66.75;100491.06;10352305;28;20807;-47
2023/02/01 13:02:59;;;;;;;13.38;2.95;;;;;;;7.19;66.36;100498.06;10350574;28;20095;-47
2023/02/01 13:08:12;;;;;;;10.15;2.75;;;;;;;7.14;66.52;100472.81;10352768;28;20080;-47
2023/02/01 13:13:16;;;;;;;11.32;2.83;;;;;;;7.19;66.43;100473.34;10350596;28;20467;-50
2023/02/01 13:18:21;;;;;;;9.18;2.50;;;;;;;7.22;66.06;100478.47;10346649;28;20215;-47
2023/02/01 13:23:30;;;;;;;7.50;2.42;;;;;;;7.26;66.16;100472.88;10338014;28;20049;-49
2023/02/01 13:28:49;;;;;;;8.52;2.75;;;;;;;7.27;66.45;100465.81;10345906;28;20574;-48
2023/02/01 13:34:38;;;;;;;8.57;2.88;;;;;;;7.31;65.48;100475.25;10343044;28;20816;-47
2023/02/01 13:40:08;;;;;;;8.98;2.78;;;;;;;7.33;65.39;100465.41;10332813;28;20041;-48
2023/02/01 13:45:16;;;;;;;10.85;2.78;;;;;;;7.41;64.71;100457.81;10341603;28;20195;-47
2023/02/01 13:50:17;;;;;;;9.07;2.85;;;;;;;7.35;64.96;100458.19;10335446;28;20535;-46
2023/02/01 13:55:21;;;;;;;8.13;2.20;;;;;;;7.42;64.52;100456.88;10340091;28;20598;-47
2023/02/01 14:00:37;;;;;;;9.90;2.60;;;;;;;7.45;64.72;100453.19;10344489;28;20532;-47
2023/02/01 14:05:39;;;;;;;10.27;3.45;;;;;;;7.51;65.29;100449.28;10346006;28;20750;-46
2023/02/01 14:10:52;;;;;;;7.85;2.85;;;;;;;7.50;64.62;100431.69;10342109;28;20132;-47
2023/02/01 14:16:03;;;;;;;12.45;3.22;;;;;;;7.56;64.49;100433.94;10342773;28;20140;-47
2023/02/01 14:21:30;;;;;;;10.38;2.88;;;;;;;7.64;63.63;100422.84;10343105;28;20050;-48
2023/02/01 14:26:34;;;;;;;5.80;2.50;;;;;;;7.68;64.10;100419.03;10338697;28;20165;-51
2023/02/01 14:31:54;;;;;;;11.98;3.15;;;;;;;7.92;62.76;100416.56;10347679;28;21362;-47
2023/02/01 14:37:01;;;;;;;9.60;2.10;;;;;;;7.89;61.14;100422.06;10347106;28;20120;-45
2023/02/01 14:42:15;;;;;;;6.65;1.92;;;;;;;8.08;60.69;100411.94;10342084;28;20053;-45
2023/02/01 14:47:28;;;;;;;8.35;2.00;;;;;;;8.27;59.03;100411.53;10347117;28;20601;-45
2023/02/01 14:52:43;;;;;;;7.20;2.33;;;;;;;8.29;58.58;100401.66;10348835;28;20203;-44
2023/02/01 14:57:49;;;;;;;10.98;2.10;;;;;;;8.73;57.27;100418.13;10348134;28;20421;-44
2023/02/01 15:02:52;;;;;;;6.00;1.33;;;;;;;8.15;58.18;100369.94;10346466;28;20460;-44
2023/02/01 15:07:54;;;;;;;6.75;1.70;;;;;;;9.09;56.11;100416.50;10343456;28;20125;-45
2023/02/01 15:12:55;;;;;;;6.35;1.85;;;;;;;8.66;57.08;100416.88;10346094;28;20050;-45
2023/02/01 15:17:59;;;;;;;8.18;2.05;;;;;;;8.33;57.97;100415.56;10347359;28;20045;-45
2023/02/01 15:23:04;;;;;;;6.97;1.80;;;;;;;8.09;59.04;100413.66;10346715;28;20064;-44
2023/02/01 15:28:13;;;;;;;6.32;1.92;;;;;;;7.87;59.60;100406.28;10346072;28;20048;-45
2023/02/01 15:33:16;;;;;;;6.72;1.70;;;;;;;7.90;59.95;100413.19;10336723;28;20049;-46
2023/02/01 15:38:31;;;;;;;6.57;2.28;;;;;;;7.84;60.40;100398.53;10342482;28;20638;-45
2023/02/01 15:43:43;;;;;;;7.32;1.98;;;;;;;7.81;60.87;100408.47;10344201;28;20442;-46
2023/02/01 15:48:48;;;;;;;6.55;1.60;;;;;;;7.85;61.28;100421.44;10346613;28;20052;-48
2023/02/01 15:54:06;;;;;;;7.18;1.55;;;;;;;7.86;61.14;100435.53;10340595;28;20122;-44
2023/02/01 15:59:17;;;;;;;6.32;1.65;;;;;;;7.83;61.25;100427.78;10337991;28;20049;-44
2023/02/01 16:04:29;;;;;;;7.93;2.22;;;;;;;7.75;62.02;100437.09;10333086;28;20049;-45
2023/02/01 16:09:38;;;;;;;9.68;1.88;;;;;;;7.79;62.47;100449.19;10342377;28;20551;-44
2023/02/01 16:14:40;;;;;;;11.18;2.33;;;;;;;7.79;63.19;100450.97;10345116;28;20053;-45
2023/02/01 16:19:41;;;;;;;9.07;2.10;;;;;;;7.75;63.62;100437.09;10340676;28;20053;-44
2023/02/01 16:24:43;;;;;;;6.05;2.25;;;;;;;7.67;63.79;100447.34;10346093;28;20056;-46
2023/02/01 16:29:44;;;;;;;5.15;1.67;;;;;;;7.73;64.16;100444.31;10344380;28;20064;-45
2023/02/01 16:34:46;;;;;;;5.50;1.38;;;;;;;7.67;64.06;100444.69;10346463;28;20061;-45
2023/02/01 16:39:48;;;;;;;6.80;1.80;;;;;;;7.59;64.55;100434.56;10351425;28;20070;-45
2023/02/01 16:44:49;;;;;;;8.68;2.00;;;;;;;7.59;64.26;100431.94;10349118;28;20064;-45
2023/02/01 16:49:51;;;;;;;5.70;1.98;;;;;;;7.68;64.39;100435.78;10345039;28;20064;-46
2023/02/01 16:54:53;;;;;;;5.50;1.95;;;;;;;7.70;64.46;100441.84;10347976;28;20136;-44
2023/02/01 16:59:54;;;;;;;5.38;1.70;;;;;;;7.67;64.26;100434.09;10350418;28;20057;-48
2023/02/01 17:04:55;;;;;;;4.63;1.80;;;;;;;7.50;64.63;100410.50;10352681;28;20547;-44
2023/02/01 17:09:57;;;;;;;6.22;1.63;;;;;;;7.49;64.46;100416.75;10352527;28;21322;-45
2023/02/01 17:14:59;;;;;;;6.85;2.05;;;;;;;7.44;65.28;100412.59;10353943;28;20049;-44
2023/02/01 17:20:03;;;;;;;6.63;1.85;;;;;;;7.45;65.31;100429.34;10350458;28;20054;-44
2023/02/01 17:25:13;;;;;;;5.18;1.98;;;;;;;7.42;66.13;100435.69;10357307;28;21878;-44
2023/02/01 17:30:15;;;;;;;7.88;1.95;;;;;;;7.38;66.48;100439.47;10350442;28;20100;-44
2023/02/01 17:35:22;;;;;;;12.73;2.53;;;;;;;7.41;66.93;100439.28;10343264;28;20049;-45
2023/02/01 17:40:26;;;;;;;7.75;1.95;;;;;;;7.37;67.52;100436.91;10340831;28;20046;-44
2023/02/01 17:45:35;;;;;;;5.72;2.30;;;;;;;7.26;68.49;100450.84;10334756;28;20067;-45
2023/02/01 17:50:37;;;;;;;4.70;1.73;;;;;;;7.43;68.76;100468.31;10352557;28;20055;-47
2023/02/01 17:55:43;;;;;;;8.43;2.50;;;;;;;7.41;69.57;100455.16;10346622;28;20845;-46
2023/02/01 18:00:46;;;;;;;10.50;3.05;;;;;;;7.42;70.59;100456.88;10348627;28;20057;-46
2023/02/01 18:05:52;;;;;;;7.05;2.33;;;;;;;7.35;71.96;100468.78;10345530;28;22520;-44
2023/02/01 18:10:59;;;;;;;7.18;2.38;;;;;;;7.16;72.97;100468.25;10350473;28;20061;-46
2023/02/01 18:16:02;;;;;;;6.03;2.55;;;;;;;7.25;74.88;100468.53;10346298;28;20107;-44
2023/02/01 18:21:04;;;;;;;7.72;1.83;;;;;;;7.17;74.46;100473.47;10347794;28;20051;-44
2023/02/01 18:26:10;;;;;;;7.15;2.25;;;;;;;7.22;74.99;100470.50;10349385;28;20124;-45
2023/02/01 18:31:32;;;;;;;7.05;2.28;;;;;;;7.12;76.51;100466.78;10339075;28;20061;-44
2023/02/01 18:36:34;;;;;;;6.05;2.20;;;;;;;6.99;77.84;100474.63;10350922;28;20049;-44
2023/02/01 18:41:35;;;;;;;8.55;2.50;;;;;;;6.86;77.89;100469.22;10341371;28;20049;-44
2023/02/01 18:46:37;;;;;;;5.75;2.10;;;;;;;6.92;78.54;100473.28;10344243;28;20194;-44
2023/02/01 18:51:38;;;;;;;7.00;2.90;;;;;;;6.86;77.97;100479.81;10343039;28;20059;-45
2023/02/01 18:56:41;;;;;;;8.27;2.47;;;;;;;6.83;78.07;100486.16;10343488;28;20064;-45
2023/02/01 19:01:43;;;;;;;7.50;2.22;;;;;;;6.86;78.12;100491.25;10344731;28;20053;-44
2023/02/01 19:06:45;;;;;;;8.55;2.00;;;;;;;6.93;78.61;100493.53;10343315;28;20064;-44
2023/02/01 19:11:46;;;;;;;5.63;2.00;;;;;;;6.84;79.36;100502.88;10343852;28;20161;-44
2023/02/01 19:16:49;;;;;;;5.72;2.17;;;;;;;6.86;78.97;100483.31;10341472;28;20200;-45
2023/02/01 19:21:51;;;;;;;7.30;1.90;;;;;;;6.85;79.95;100488.69;10346473;28;20054;-46
2023/02/01 19:26:52;;;;;;;5.55;1.95;;;;;;;6.87;80.20;100484.16;10346079;28;20049;-44
2023/02/01 19:31:54;;;;;;;5.75;2.35;;;;;;;6.93;80.01;100486.41;10344187;28;20065;-44
2023/02/01 19:36:55;;;;;;;7.75;2.80;;;;;;;6.93;79.73;100486.41;10346287;28;20061;-44
2023/02/01 19:41:58;;;;;;;5.18;2.20;;;;;;;6.90;79.39;100490.13;10341870;28;20057;-44
2023/02/01 19:46:59;;;;;;;9.25;2.85;;;;;;;6.89;78.94;100491.06;10343135;28;21870;-45
2023/02/01 19:52:01;;;;;;;6.45;2.28;;;;;;;6.86;79.41;100485.09;10341388;28;20075;-45
2023/02/01 19:57:03;;;;;;;8.85;3.10;;;;;;;7.02;78.95;100507.03;10343673;28;20582;-45
2023/02/01 20:02:04;;;;;;;9.63;3.15;;;;;;;7.14;78.92;100509.88;10347116;28;20049;-45
2023/02/01 20:07:06;;;;;;;7.72;2.05;;;;;;;7.12;78.11;100506.47;10345949;28;20053;-45
2023/02/01 20:12:11;;;;;;;5.47;2.20;;;;;;;7.22;78.06;100503.16;10349680;28;20151;-44
2023/02/01 20:17:14;;;;;;;6.40;2.75;;;;;;;7.25;77.22;100491.50;10347121;28;20054;-45
2023/02/01 20:22:16;;;;;;;7.07;2.40;;;;;;;7.26;76.58;100490.56;10342872;28;20315;-45
2023/02/01 20:27:18;;;;;;;7.88;2.63;;;;;;;7.24;76.53;100481.88;10346210;28;20076;-45
2023/02/01 20:32:19;;;;;;;6.22;2.88;;;;;;;7.19;76.12;100483.94;10339609;28;20144;-46
2023/02/01 20:37:20;;;;;;;8.75;2.88;;;;;;;7.23;76.03;100488.13;10343035;28;20060;-44
2023/02/01 20:42:22;;;;;;;6.95;2.15;;;;;;;7.32;75.46;100492.81;10344434;28;20144;-43
2023/02/01 20:47:23;;;;;;;6.53;2.33;;;;;;;7.35;75.17;100503.22;10342605;28;20124;-47
2023/02/01 20:52:25;;;;;;;7.40;2.45;;;;;;;7.37;74.91;100496.06;10341804;28;20053;-45
2023/02/01 20:57:26;;;;;;;6.03;2.50;;;;;;;7.34;75.21;100496.25;10340513;28;20790;-50
2023/02/01 21:02:27;;;;;;;6.70;2.78;;;;;;;7.35;74.59;100491.78;10334144;28;20541;-43
2023/02/01 21:07:29;;;;;;;6.85;2.58;;;;;;;7.34;73.83;100493.59;10335221;28;20053;-44
2023/02/01 21:12:30;;;;;;;4.15;2.15;;;;;;;7.31;74.40;100491.16;10345581;28;20041;-44
2023/02/01 21:17:32;;;;;;;7.93;2.55;;;;;;;7.30;73.82;100480.66;10352494;28;20042;-45
2023/02/01 21:22:33;;;;;;;8.30;3.13;;;;;;;7.28;73.28;100479.88;10348576;28;20046;-44
2023/02/01 21:27:35;;;;;;;7.95;2.83;;;;;;;7.33;73.53;100494.53;10343789;28;20049;-44
2023/02/01 21:32:37;;;;;;;8.23;2.83;;;;;;;7.29;73.43;100502.78;10346115;28;20165;-44
2023/02/01 21:37:38;;;;;;;6.40;2.47;;;;;;;7.25;73.30;100491.50;10348928;28;20511;-44
2023/02/01 21:42:41;;;;;;;9.65;2.45;;;;;;;7.17;73.22;100493.78;10345979;28;20061;-44
2023/02/01 21:47:43;;;;;;;5.68;2.00;;;;;;;7.21;73.48;100513.84;10344531;28;20056;-44
2023/02/01 21:52:45;;;;;;;7.30;2.20;;;;;;;7.21;73.30;100508.56;10354277;28;20141;-44
2023/02/01 21:57:46;;;;;;;7.22;2.60;;;;;;;7.26;72.66;100509.09;10349723;28;20641;-45
2023/02/01 22:02:48;;;;;;;5.90;2.03;;;;;;;7.28;73.27;100509.88;10351201;28;20388;-44
2023/02/01 22:07:49;;;;;;;7.35;2.22;;;;;;;7.26;73.17;100515.25;10342719;28;20561;-44
2023/02/01 22:12:50;;;;;;;7.35;2.42;;;;;;;7.29;72.64;100511.56;10350911;28;20494;-44
2023/02/01 22:17:52;;;;;;;5.90;1.90;;;;;;;7.28;72.79;100533.72;10347970;28;20050;-43
2023/02/01 22:22:55;;;;;;;8.85;2.65;;;;;;;7.31;72.59;100530.88;10345340;28;20041;-44
2023/02/01 22:27:56;;;;;;;5.95;2.17;;;;;;;7.22;72.80;100526.13;10349825;28;20050;-45
2023/02/01 22:33:18;;;;;;;9.25;2.40;;;;;;;7.26;72.67;100525.00;10349139;28;20056;-44
2023/02/01 22:38:19;;;;;;;8.05;2.58;;;;;;;7.31;72.96;100522.91;10346569;28;20045;-44
2023/02/01 22:43:21;;;;;;;5.65;1.90;;;;;;;7.26;72.34;100517.03;10327398;28;20052;-44
2023/02/01 22:48:23;;;;;;;4.93;1.70;;;;;;;7.26;73.22;100536.41;10347614;28;20115;-44
2023/02/01 22:53:25;;;;;;;3.95;1.70;;;;;;;7.35;74.55;100540.31;10344591;28;20645;-46
2023/02/01 22:58:27;;;;;;;5.10;1.73;;;;;;;7.35;74.38;100545.59;10343584;28;21011;-44
2023/02/01 23:03:28;;;;;;;5.88;2.17;;;;;;;7.35;74.87;100545.59;10346368;28;20049;-44
2023/02/01 23:08:32;;;;;;;6.28;2.08;;;;;;;7.31;74.63;100540.59;10343609;28;20199;-44
2023/02/01 23:13:35;;;;;;;6.43;2.53;;;;;;;7.28;74.46;100536.34;10347977;28;20457;-44
2023/02/01 23:18:38;;;;;;;5.68;2.05;;;;;;;7.21;74.79;100535.88;10347827;28;20065;-45
2023/02/01 23:23:43;;;;;;;7.72;1.95;;;;;;;7.28;74.60;100536.34;10350020;28;20042;-44
2023/02/01 23:28:45;;;;;;;4.82;1.50;;;;;;;7.26;75.00;100530.28;10345730;28;20045;-45
2023/02/01 23:33:48;;;;;;;6.28;2.22;;;;;;;7.20;75.43;100528.88;10348874;28;20054;-45
2023/02/01 23:38:50;;;;;;;4.93;1.85;;;;;;;7.04;75.64;100497.22;10345787;28;20077;-44
2023/02/01 23:43:57;;;;;;;6.57;1.75;;;;;;;7.26;75.83;100530.28;10355213;28;20140;-44
2023/02/01 23:49:00;;;;;;;6.07;2.03;;;;;;;7.23;76.33;100526.03;10354327;28;20053;-45
2023/02/01 23:54:02;;;;;;;3.65;1.30;;;;;;;7.29;76.21;100543.34;10345451;28;20041;-45
2023/02/01 23:59:08;;;;;;;5.93;1.60;;;;;;;7.25;76.65;100544.47;10344667;28;20116;-45
